createdAt,value
2023-02-22T00:02:11.259Z,8.38
2023-02-22T00:04:39.933Z,9.10
2023-02-22T00:07:08.428Z,6.65
2023-02-22T00:09:35.886Z,8.93
2023-02-22T00:12:03.057Z,6.15
2023-02-22T00:14:30.138Z,6.45
2023-02-22T00:16:59.964Z,6.15
2023-02-22T00:19:28.446Z,7.18
2023-02-22T00:21:55.774Z,6.97
2023-02-22T00:24:25.833Z,7.35
2023-02-22T00:26:56.017Z,7.88
2023-02-22T00:29:23.923Z,7.55
2023-02-22T00:31:51.269Z,5.97
2023-02-22T00:34:18.602Z,7.43
2023-02-22T00:36:49.800Z,6.45
2023-02-22T00:39:17.061Z,7.10
2023-02-22T00:41:44.455Z,5.85
2023-02-22T00:44:12.240Z,6.88
2023-02-22T00:46:39.866Z,6.47
2023-02-22T00:49:07.101Z,6.25
2023-02-22T00:51:34.247Z,6.63
2023-02-22T00:54:01.659Z,6.63
2023-02-22T00:56:29.045Z,7.10
2023-02-22T00:58:56.492Z,6.32
2023-02-22T01:01:24.605Z,6.43
2023-02-22T01:03:52.225Z,6.20
2023-02-22T01:06:21.038Z,6.88
2023-02-22T01:08:49.121Z,5.93
2023-02-22T01:11:18.274Z,4.93
2023-02-22T01:13:48.753Z,6.05
2023-02-22T01:16:16.025Z,8.38
2023-02-22T01:18:43.401Z,6.50
2023-02-22T01:21:10.597Z,7.45
2023-02-22T01:23:37.873Z,6.57
2023-02-22T01:26:06.279Z,7.30
2023-02-22T01:28:34.053Z,7.47
2023-02-22T01:31:03.510Z,8.23
2023-02-22T01:33:31.252Z,8.63
2023-02-22T01:35:58.482Z,6.00
2023-02-22T01:38:28.040Z,6.85
2023-02-22T01:40:55.271Z,7.55
2023-02-22T01:43:24.238Z,9.27
2023-02-22T01:45:56.007Z,6.75
2023-02-22T01:48:26.739Z,6.85
2023-02-22T01:50:54.267Z,6.97
2023-02-22T01:53:24.041Z,7.55
2023-02-22T01:55:51.883Z,6.60
2023-02-22T01:58:21.302Z,7.03
2023-02-22T02:00:48.656Z,8.82
2023-02-22T02:03:21.977Z,7.22
2023-02-22T02:05:50.476Z,8.95
2023-02-22T02:08:23.501Z,6.25
2023-02-22T02:10:52.233Z,8.55
2023-02-22T02:13:20.701Z,8.05
2023-02-22T02:15:50.188Z,6.85
2023-02-22T02:18:17.294Z,6.97
2023-02-22T02:20:45.262Z,6.70
2023-02-22T02:23:30.900Z,6.38
2023-02-22T02:26:17.011Z,7.43
2023-02-22T02:29:00.342Z,5.80
2023-02-22T02:31:28.541Z,7.78
2023-02-22T02:33:58.537Z,9.23
2023-02-22T02:36:25.768Z,6.72
2023-02-22T02:39:02.246Z,10.35
2023-02-22T02:41:32.084Z,6.38
2023-02-22T02:44:08.061Z,6.45
2023-02-22T02:46:35.177Z,6.60
2023-02-22T02:49:28.723Z,6.82
2023-02-22T02:51:56.427Z,9.10
2023-02-22T02:54:24.158Z,8.05
2023-02-22T02:56:52.943Z,5.65
2023-02-22T02:59:33.896Z,6.47
2023-02-22T03:02:04.219Z,6.35
2023-02-22T03:04:49.246Z,6.65
2023-02-22T03:07:16.922Z,6.35
2023-02-22T03:10:13.597Z,6.15
2023-02-22T03:13:00.297Z,6.85
2023-02-22T03:15:43.122Z,7.47
2023-02-22T03:18:18.128Z,6.15
2023-02-22T03:20:52.872Z,7.22
2023-02-22T03:23:27.895Z,7.28
2023-02-22T03:25:59.665Z,6.00
2023-02-22T03:28:29.153Z,5.35
2023-02-22T03:31:02.415Z,6.18
2023-02-22T03:33:48.229Z,6.45
2023-02-22T03:36:19.085Z,6.60
2023-02-22T03:38:47.546Z,6.60
2023-02-22T03:41:18.208Z,7.38
2023-02-22T03:43:48.181Z,7.07
2023-02-22T03:46:17.181Z,6.13
2023-02-22T03:48:55.227Z,6.68
2023-02-22T03:51:23.799Z,8.95
2023-02-22T03:53:56.144Z,6.50
2023-02-22T03:56:36.091Z,6.87
2023-02-22T03:59:07.650Z,6.95
2023-02-22T04:01:35.171Z,7.18
2023-02-22T04:04:02.593Z,8.43
2023-02-22T04:06:30.638Z,6.25
2023-02-22T04:08:59.807Z,7.33
2023-02-22T04:11:27.294Z,6.90
2023-02-22T04:13:55.189Z,9.38
2023-02-22T04:16:25.546Z,6.55
2023-02-22T04:18:52.960Z,7.70
2023-02-22T04:21:23.455Z,6.35
2023-02-22T04:23:51.492Z,7.15
2023-02-22T04:26:19.162Z,7.95
2023-02-22T04:28:51.866Z,7.75
2023-02-22T04:31:23.166Z,6.55
2023-02-22T04:33:53.708Z,7.93
2023-02-22T04:36:25.842Z,6.60
2023-02-22T04:38:53.971Z,9.25
2023-02-22T04:41:21.409Z,7.22
2023-02-22T04:43:50.805Z,7.65
2023-02-22T04:46:23.116Z,6.95
2023-02-22T04:48:52.301Z,7.30
2023-02-22T04:51:22.228Z,8.95
2023-02-22T04:54:05.383Z,7.38
2023-02-22T04:56:34.881Z,8.65
2023-02-22T04:59:02.033Z,6.55
2023-02-22T05:01:33.958Z,8.65
2023-02-22T05:04:08.590Z,7.85
2023-02-22T05:06:35.973Z,7.05
2023-02-22T05:09:03.406Z,7.20
2023-02-22T05:11:30.618Z,7.43
2023-02-22T05:13:57.662Z,8.27
2023-02-22T05:16:24.888Z,9.63
2023-02-22T05:18:52.350Z,8.02
2023-02-22T05:21:19.867Z,7.90
2023-02-22T05:23:46.999Z,7.75
2023-02-22T05:26:14.215Z,8.50
2023-02-22T05:28:41.561Z,8.95
2023-02-22T05:31:08.913Z,8.15
2023-02-22T05:33:36.456Z,6.75
2023-02-22T05:36:03.717Z,7.03
2023-02-22T05:38:30.841Z,6.57
2023-02-22T05:40:58.126Z,7.97
2023-02-22T05:43:25.409Z,6.82
2023-02-22T05:45:52.521Z,6.80
2023-02-22T05:48:22.218Z,7.70
2023-02-22T05:50:50.301Z,7.75
2023-02-22T05:53:17.578Z,8.70
2023-02-22T05:55:46.445Z,10.02
2023-02-22T05:58:13.822Z,8.65
2023-02-22T06:00:41.367Z,9.90
2023-02-22T06:03:10.510Z,8.05
2023-02-22T06:05:39.911Z,7.50
2023-02-22T06:08:07.892Z,7.57
2023-02-22T06:10:35.047Z,6.72
2023-02-22T06:13:02.703Z,6.77
2023-02-22T06:15:30.010Z,7.57
2023-02-22T06:17:58.157Z,7.35
2023-02-22T06:20:26.378Z,8.20
2023-02-22T06:22:55.070Z,7.68
2023-02-22T06:25:26.691Z,7.17
2023-02-22T06:27:54.054Z,7.75
2023-02-22T06:30:22.434Z,7.88
2023-02-22T06:32:49.866Z,8.20
2023-02-22T06:35:17.582Z,9.85
2023-02-22T06:37:47.796Z,7.50
2023-02-22T06:40:16.185Z,7.35
2023-02-22T06:42:43.448Z,6.57
2023-02-22T06:45:11.144Z,6.57
2023-02-22T06:47:39.593Z,6.72
2023-02-22T06:50:07.046Z,6.85
2023-02-22T06:52:34.319Z,6.27
2023-02-22T06:55:01.511Z,7.72
2023-02-22T06:57:28.773Z,6.85
2023-02-22T06:59:58.824Z,6.63
2023-02-22T07:02:26.033Z,7.10
2023-02-22T07:04:56.297Z,10.97
2023-02-22T07:07:25.650Z,8.07
2023-02-22T07:09:52.897Z,10.30
2023-02-22T07:12:19.975Z,7.20
2023-02-22T07:14:47.100Z,7.35
2023-02-22T07:17:14.277Z,8.93
2023-02-22T07:19:41.516Z,8.38
2023-02-22T07:22:11.592Z,7.20
2023-02-22T07:24:41.999Z,7.53
2023-02-22T07:27:10.158Z,7.10
2023-02-22T07:29:37.514Z,7.37
2023-02-22T07:32:04.901Z,11.57
2023-02-22T07:34:32.165Z,7.63
2023-02-22T07:36:59.437Z,8.20
2023-02-22T07:39:29.234Z,8.90
2023-02-22T07:41:56.399Z,9.33
2023-02-22T07:44:24.325Z,8.45
2023-02-22T07:46:51.394Z,8.70
2023-02-22T07:49:19.746Z,7.43
2023-02-22T07:51:48.908Z,8.05
2023-02-22T07:54:18.248Z,8.73
2023-02-22T07:56:46.577Z,9.80
2023-02-22T07:59:13.989Z,8.98
2023-02-22T08:01:41.577Z,8.60
2023-02-22T08:04:08.876Z,9.38
2023-02-22T08:06:36.514Z,8.97
2023-02-22T08:09:03.943Z,11.40
2023-02-22T08:11:31.319Z,10.82
2023-02-22T08:13:58.792Z,13.13
2023-02-22T08:16:25.985Z,13.18
2023-02-22T08:18:53.178Z,11.87
2023-02-22T08:21:20.567Z,19.02
2023-02-22T08:23:51.439Z,14.85
2023-02-22T08:26:21.090Z,11.25
2023-02-22T08:28:49.076Z,12.00
2023-02-22T08:31:16.820Z,14.23
2023-02-22T08:33:47.408Z,14.73
2023-02-22T08:36:14.763Z,14.85
2023-02-22T08:38:42.064Z,10.85
2023-02-22T08:41:09.467Z,12.98
2023-02-22T08:43:36.731Z,13.93
2023-02-22T08:46:04.402Z,11.32
2023-02-22T08:48:31.664Z,10.10
2023-02-22T08:50:59.145Z,10.50
2023-02-22T08:53:26.474Z,12.10
2023-02-22T08:55:54.115Z,9.57
2023-02-22T08:58:21.294Z,8.32
2023-02-22T09:00:48.547Z,9.95
2023-02-22T09:03:16.123Z,11.07
2023-02-22T09:05:44.628Z,10.05
2023-02-22T09:08:11.895Z,11.70
2023-02-22T09:10:39.228Z,7.55
2023-02-22T09:13:06.625Z,7.90
2023-02-22T09:15:36.215Z,8.13
2023-02-22T09:18:04.224Z,8.48
2023-02-22T09:20:31.625Z,9.27
2023-02-22T09:22:59.814Z,8.30
2023-02-22T09:25:27.511Z,10.40
2023-02-22T09:27:54.957Z,7.50
2023-02-22T09:30:25.007Z,10.10
2023-02-22T09:32:53.550Z,12.63
2023-02-22T09:35:20.891Z,9.63
2023-02-22T09:37:47.974Z,7.78
2023-02-22T09:40:18.097Z,11.95
2023-02-22T09:42:50.225Z,9.57
2023-02-22T09:45:24.213Z,10.97
2023-02-22T09:47:58.501Z,8.50
2023-02-22T09:50:30.801Z,7.00
2023-02-22T09:53:06.118Z,7.63
2023-02-22T09:55:38.470Z,13.52
2023-02-22T09:58:21.535Z,9.97
2023-02-22T10:00:51.928Z,11.90
2023-02-22T10:03:21.772Z,9.88
2023-02-22T10:06:00.252Z,8.02
2023-02-22T10:08:31.300Z,8.93
2023-02-22T10:11:18.337Z,9.07
2023-02-22T10:13:53.956Z,7.82
2023-02-22T10:16:28.036Z,9.65
2023-02-22T10:18:55.658Z,9.05
2023-02-22T10:21:43.111Z,8.52
2023-02-22T10:24:30.574Z,9.63
2023-02-22T10:26:58.523Z,7.45
2023-02-22T10:29:36.074Z,9.98
2023-02-22T10:32:07.571Z,8.55
2023-02-22T10:34:40.042Z,7.85
2023-02-22T10:37:16.300Z,15.40
2023-02-22T10:39:45.040Z,8.85
2023-02-22T10:42:12.314Z,10.77
2023-02-22T10:44:40.481Z,11.23
2023-02-22T10:47:09.772Z,9.27
2023-02-22T10:49:39.515Z,10.37
2023-02-22T10:52:13.978Z,10.90
2023-02-22T10:54:46.908Z,9.93
2023-02-22T10:57:14.267Z,8.68
2023-02-22T10:59:45.532Z,18.23
2023-02-22T11:02:15.460Z,19.43
2023-02-22T11:04:56.643Z,17.63
2023-02-22T11:07:25.316Z,16.27
2023-02-22T11:09:52.569Z,19.48
2023-02-22T11:12:42.729Z,17.08
2023-02-22T11:15:19.176Z,21.60
2023-02-22T11:17:47.203Z,19.20
2023-02-22T11:20:28.956Z,17.80
2023-02-22T11:22:58.494Z,17.30
2023-02-22T11:25:32.621Z,18.83
2023-02-22T11:28:15.256Z,16.50
2023-02-22T11:30:44.889Z,18.25
2023-02-22T11:33:24.120Z,18.30
2023-02-22T11:35:52.938Z,20.15
2023-02-22T11:38:23.035Z,19.48
2023-02-22T11:41:20.786Z,18.13
2023-02-22T11:43:49.200Z,21.30
2023-02-22T11:46:22.671Z,19.52
2023-02-22T11:49:09.336Z,15.73
2023-02-22T11:51:55.149Z,17.40
2023-02-22T11:54:41.090Z,20.70
2023-02-22T11:57:28.498Z,22.73
2023-02-22T12:00:12.553Z,18.55
2023-02-22T12:02:41.674Z,17.35
2023-02-22T12:05:28.961Z,20.10
2023-02-22T12:08:13.792Z,20.03
2023-02-22T12:10:57.646Z,24.08
2023-02-22T12:13:30.908Z,22.08
2023-02-22T12:16:14.128Z,17.80
2023-02-22T12:19:20.518Z,18.80
2023-02-22T12:21:52.675Z,20.47
2023-02-22T12:24:22.612Z,20.40
2023-02-22T12:26:51.453Z,20.63
2023-02-22T12:29:40.144Z,16.13
2023-02-22T12:32:30.914Z,20.30
2023-02-22T12:35:05.752Z,20.23
2023-02-22T12:37:51.593Z,17.48
2023-02-22T12:40:26.276Z,22.45
2023-02-22T12:42:56.488Z,18.00
2023-02-22T12:45:27.477Z,17.73
2023-02-22T12:48:14.636Z,22.43
2023-02-22T12:50:43.622Z,16.67
2023-02-22T12:53:29.759Z,17.90
2023-02-22T12:56:03.352Z,19.00
2023-02-22T12:58:36.692Z,16.55
2023-02-22T13:01:30.346Z,16.23
2023-02-22T13:03:57.638Z,20.63
2023-02-22T13:06:36.608Z,15.70
2023-02-22T13:09:24.717Z,17.10
2023-02-22T13:11:53.332Z,17.63
2023-02-22T13:14:30.598Z,18.50
2023-02-22T13:16:57.668Z,20.08
2023-02-22T13:19:43.742Z,18.15
2023-02-22T13:22:29.844Z,21.85
2023-02-22T13:25:19.281Z,21.10
2023-02-22T13:27:52.812Z,18.50
2023-02-22T13:30:32.873Z,18.40
2023-02-22T13:33:00.242Z,16.95
2023-02-22T13:35:27.370Z,17.23
2023-02-22T13:38:14.955Z,15.48
2023-02-22T13:40:45.025Z,16.07
2023-02-22T13:43:15.481Z,17.25
2023-02-22T13:46:02.244Z,16.92
2023-02-22T13:48:34.850Z,17.52
2023-02-22T13:51:34.635Z,13.57
2023-02-22T13:54:06.750Z,15.57
2023-02-22T13:56:34.149Z,13.07
2023-02-22T13:59:02.934Z,13.90
2023-02-22T14:01:47.649Z,12.75
2023-02-22T14:04:24.094Z,13.52
2023-02-22T14:06:51.785Z,11.37
2023-02-22T14:09:48.554Z,12.85
2023-02-22T14:12:31.381Z,9.88
2023-02-22T14:15:26.772Z,14.60
2023-02-22T14:18:01.327Z,11.65
2023-02-22T14:20:37.043Z,14.67
2023-02-22T14:23:24.097Z,12.82
2023-02-22T14:25:51.560Z,11.32
2023-02-22T14:28:37.392Z,13.18
2023-02-22T14:31:29.322Z,12.93
2023-02-22T14:33:56.886Z,11.47
2023-02-22T14:36:26.860Z,12.07
2023-02-22T14:38:55.177Z,10.80
2023-02-22T14:41:25.109Z,12.15
2023-02-22T14:43:53.791Z,11.30
2023-02-22T14:46:23.196Z,11.17
2023-02-22T14:48:53.512Z,10.65
2023-02-22T14:51:22.770Z,10.65
2023-02-22T14:53:55.822Z,12.48
2023-02-22T14:56:27.224Z,13.68
2023-02-22T14:58:57.968Z,9.87
2023-02-22T15:01:49.089Z,10.85
2023-02-22T15:04:22.054Z,10.43
2023-02-22T15:06:50.492Z,11.07
2023-02-22T15:09:28.908Z,9.30
2023-02-22T15:12:03.036Z,10.43
2023-02-22T15:14:32.722Z,11.80
2023-02-22T15:17:01.717Z,14.13
2023-02-22T15:19:30.724Z,10.40
2023-02-22T15:21:59.557Z,11.57
2023-02-22T15:24:30.008Z,10.27
2023-02-22T15:27:05.681Z,11.73
2023-02-22T15:29:37.850Z,14.52
2023-02-22T15:32:26.005Z,13.68
2023-02-22T15:34:56.800Z,13.55
2023-02-22T15:37:29.527Z,12.40
2023-02-22T15:40:08.297Z,9.68
2023-02-22T15:42:42.836Z,12.60
2023-02-22T15:45:15.169Z,11.77
2023-02-22T15:47:42.552Z,10.50
2023-02-22T15:50:15.770Z,13.37
2023-02-22T15:53:18.471Z,13.32
2023-02-22T15:55:47.634Z,11.77
2023-02-22T15:58:25.684Z,13.98
2023-02-22T16:01:04.030Z,12.15
2023-02-22T16:03:45.840Z,11.13
2023-02-22T16:06:15.362Z,11.02
2023-02-22T16:08:55.106Z,12.98
2023-02-22T16:11:30.319Z,11.82
2023-02-22T16:14:02.231Z,11.57
2023-02-22T16:16:30.942Z,10.60
2023-02-22T16:19:17.115Z,12.07
2023-02-22T16:21:53.859Z,15.18
2023-02-22T16:24:30.085Z,13.02
2023-02-22T16:27:10.974Z,11.43
2023-02-22T16:29:38.377Z,14.60
2023-02-22T16:32:05.680Z,14.73
2023-02-22T16:34:33.082Z,15.15
2023-02-22T16:37:02.067Z,14.80
2023-02-22T16:39:30.424Z,14.75
2023-02-22T16:41:59.118Z,13.07
2023-02-22T16:44:27.135Z,15.88
2023-02-22T16:47:03.316Z,16.33
2023-02-22T16:49:30.691Z,14.82
2023-02-22T16:51:59.859Z,13.90
2023-02-22T16:54:36.716Z,18.43
2023-02-22T16:57:05.086Z,11.65
2023-02-22T16:59:36.448Z,14.35
2023-02-22T17:02:07.900Z,16.02
2023-02-22T17:04:37.822Z,14.40
2023-02-22T17:07:05.522Z,15.03
2023-02-22T17:09:33.247Z,14.07
2023-02-22T17:12:00.734Z,14.27
2023-02-22T17:14:36.652Z,14.75
2023-02-22T17:17:03.996Z,13.07
2023-02-22T17:19:31.197Z,12.77
2023-02-22T17:21:58.358Z,17.27
2023-02-22T17:24:29.524Z,13.77
2023-02-22T17:26:59.622Z,13.60
2023-02-22T17:29:28.198Z,17.63
2023-02-22T17:31:55.473Z,15.20
2023-02-22T17:34:22.760Z,15.82
2023-02-22T17:36:50.082Z,18.08
2023-02-22T17:39:17.285Z,16.40
2023-02-22T17:41:44.498Z,16.73
2023-02-22T17:44:11.890Z,17.43
2023-02-22T17:46:41.148Z,16.30
2023-02-22T17:49:08.361Z,16.50
2023-02-22T17:51:35.528Z,18.13
2023-02-22T17:54:02.626Z,21.15
2023-02-22T17:56:29.880Z,24.13
2023-02-22T17:58:57.133Z,21.63
2023-02-22T18:01:32.209Z,19.75
2023-02-22T18:04:00.173Z,15.43
2023-02-22T18:06:28.949Z,19.90
2023-02-22T18:08:58.050Z,23.30
2023-02-22T18:11:28.854Z,22.27
2023-02-22T18:13:57.618Z,16.70
2023-02-22T18:16:28.107Z,16.50
2023-02-22T18:18:57.941Z,17.17
2023-02-22T18:21:27.055Z,15.93
2023-02-22T18:23:55.160Z,23.88
2023-02-22T18:26:23.593Z,23.92
2023-02-22T18:28:51.195Z,23.13
2023-02-22T18:31:19.671Z,24.17
2023-02-22T18:33:47.824Z,18.87
2023-02-22T18:36:23.550Z,17.75
2023-02-22T18:38:54.379Z,17.83
2023-02-22T18:41:25.703Z,19.75
2023-02-22T18:43:55.727Z,24.63
2023-02-22T18:46:23.733Z,19.80
2023-02-22T18:48:52.817Z,20.15
2023-02-22T18:51:19.986Z,20.80
2023-02-22T18:53:48.108Z,20.08
2023-02-22T18:56:17.413Z,22.52
2023-02-22T18:58:44.849Z,27.08
2023-02-22T19:01:16.703Z,32.38
2023-02-22T19:03:44.210Z,19.50
2023-02-22T19:06:11.569Z,19.40
2023-02-22T19:08:40.025Z,15.25
2023-02-22T19:11:12.146Z,16.20
2023-02-22T19:13:39.388Z,15.95
2023-02-22T19:16:07.697Z,16.55
2023-02-22T19:18:35.271Z,16.70
2023-02-22T19:21:03.974Z,14.68
2023-02-22T19:23:34.527Z,17.63
2023-02-22T19:26:06.212Z,14.40
2023-02-22T19:28:36.066Z,13.18
2023-02-22T19:31:13.202Z,14.65
2023-02-22T19:33:40.842Z,12.30
2023-02-22T19:36:11.704Z,14.30
2023-02-22T19:38:39.106Z,12.75
2023-02-22T19:41:10.173Z,14.23
2023-02-22T19:43:38.155Z,12.05
2023-02-22T19:46:07.825Z,11.70
2023-02-22T19:48:35.546Z,12.98
2023-02-22T19:51:10.386Z,16.98
2023-02-22T19:53:41.746Z,12.75
2023-02-22T19:56:10.173Z,14.10
2023-02-22T19:58:43.217Z,12.52
2023-02-22T20:01:13.692Z,11.88
2023-02-22T20:03:42.688Z,11.50
2023-02-22T20:06:11.360Z,13.20
2023-02-22T20:08:42.388Z,11.45
2023-02-22T20:11:10.822Z,11.77
2023-02-22T20:13:38.873Z,13.87
2023-02-22T20:16:06.777Z,13.70
2023-02-22T20:18:34.011Z,12.85
2023-02-22T20:21:06.156Z,11.60
2023-02-22T20:23:33.364Z,11.02
2023-02-22T20:26:00.550Z,13.82
2023-02-22T20:28:27.912Z,12.95
2023-02-22T20:30:55.382Z,16.05
2023-02-22T20:33:23.636Z,11.82
2023-02-22T20:35:50.872Z,12.32
2023-02-22T20:38:19.596Z,11.27
2023-02-22T20:40:47.212Z,16.60
2023-02-22T20:43:14.532Z,12.43
2023-02-22T20:45:41.951Z,14.50
2023-02-22T20:48:09.402Z,14.10
2023-02-22T20:50:36.622Z,16.80
2023-02-22T20:53:03.878Z,12.43
2023-02-22T20:55:31.626Z,12.32
2023-02-22T20:57:58.828Z,13.68
2023-02-22T21:00:25.918Z,13.02
2023-02-22T21:02:53.036Z,17.00
2023-02-22T21:05:20.136Z,20.02
2023-02-22T21:07:47.365Z,18.23
2023-02-22T21:10:16.119Z,20.30
2023-02-22T21:12:45.777Z,17.98
2023-02-22T21:15:14.671Z,19.27
2023-02-22T21:17:47.829Z,15.27
2023-02-22T21:20:15.103Z,13.27
2023-02-22T21:22:44.097Z,11.68
2023-02-22T21:25:11.546Z,12.82
2023-02-22T21:27:38.717Z,13.07
2023-02-22T21:30:06.065Z,16.50
2023-02-22T21:32:33.236Z,15.63
2023-02-22T21:35:00.398Z,15.18
2023-02-22T21:37:34.805Z,17.08
2023-02-22T21:40:01.907Z,17.47
2023-02-22T21:42:29.272Z,16.13
2023-02-22T21:44:56.718Z,14.48
2023-02-22T21:47:24.005Z,15.35
2023-02-22T21:49:51.265Z,16.17
2023-02-22T21:52:19.878Z,16.60
2023-02-22T21:54:47.372Z,14.50
2023-02-22T21:57:15.299Z,16.70
2023-02-22T21:59:42.619Z,13.88
2023-02-22T22:02:10.752Z,13.85
2023-02-22T22:04:37.987Z,15.50
2023-02-22T22:07:05.402Z,15.98
2023-02-22T22:09:38.338Z,16.90
2023-02-22T22:12:05.641Z,16.80
2023-02-22T22:14:33.194Z,17.63
2023-02-22T22:17:01.038Z,14.45
2023-02-22T22:19:29.576Z,15.02
2023-02-22T22:21:57.650Z,18.08
2023-02-22T22:24:25.682Z,17.60
2023-02-22T22:26:55.049Z,16.02
2023-02-22T22:29:24.679Z,17.55
2023-02-22T22:31:52.674Z,18.73
2023-02-22T22:34:19.905Z,16.75
2023-02-22T22:36:48.255Z,17.60
2023-02-22T22:39:15.463Z,16.23
2023-02-22T22:41:44.472Z,16.00
2023-02-22T22:44:12.235Z,17.17
2023-02-22T22:46:42.161Z,14.77
2023-02-22T22:49:10.189Z,17.60
2023-02-22T22:51:38.155Z,19.10
2023-02-22T22:54:09.688Z,19.88
2023-02-22T22:56:38.175Z,18.75
2023-02-22T22:59:10.301Z,20.00
2023-02-22T23:01:44.835Z,19.88
2023-02-22T23:04:16.686Z,18.73
2023-02-22T23:06:45.445Z,20.98
2023-02-22T23:09:19.016Z,18.38
2023-02-22T23:11:51.085Z,24.98
2023-02-22T23:14:20.848Z,18.73
2023-02-22T23:16:48.884Z,22.15
2023-02-22T23:19:16.372Z,23.08
2023-02-22T23:21:46.415Z,20.30
2023-02-22T23:24:17.660Z,23.70
2023-02-22T23:26:51.546Z,21.58
2023-02-22T23:29:20.241Z,24.63
2023-02-22T23:31:51.055Z,22.83
2023-02-22T23:34:21.484Z,21.15
2023-02-22T23:36:54.464Z,22.05
2023-02-22T23:39:22.484Z,21.05
2023-02-22T23:41:55.754Z,20.35
2023-02-22T23:44:23.275Z,19.87
2023-02-22T23:46:55.978Z,21.40
2023-02-22T23:49:24.173Z,21.88
2023-02-22T23:51:51.506Z,19.52
2023-02-22T23:54:20.701Z,23.00
2023-02-22T23:56:56.772Z,21.13
2023-02-22T23:59:26.589Z,22.00
